createdAt,value
2022-11-30T00:04:59.238Z,12.57
2022-11-30T00:10:01.549Z,12.20
2022-11-30T00:15:03.590Z,12.57
2022-11-30T00:20:05.885Z,15.77
2022-11-30T00:25:08.392Z,16.60
2022-11-30T00:30:10.466Z,15.73
2022-11-30T00:35:12.219Z,15.95
2022-11-30T00:40:14.772Z,17.95
2022-11-30T00:45:16.398Z,16.90
2022-11-30T00:50:17.962Z,16.92
2022-11-30T00:55:19.548Z,16.25
2022-11-30T01:00:21.181Z,14.98
2022-11-30T01:05:22.801Z,14.90
2022-11-30T01:10:24.364Z,15.60
2022-11-30T01:15:26.083Z,15.35
2022-11-30T01:20:27.842Z,15.05
2022-11-30T01:25:29.624Z,16.20
2022-11-30T01:30:31.419Z,17.00
2022-11-30T01:35:33.212Z,17.05
2022-11-30T01:40:34.923Z,16.80
2022-11-30T01:45:36.547Z,16.80
2022-11-30T01:50:38.349Z,15.57
2022-11-30T01:55:42.763Z,16.52
2022-11-30T02:00:47.162Z,17.17
2022-11-30T02:05:49.177Z,17.35
2022-11-30T02:10:54.359Z,17.13
2022-11-30T02:16:22.219Z,17.33
2022-11-30T02:21:59.835Z,18.13
2022-11-30T02:27:22.150Z,18.35
2022-11-30T02:32:39.928Z,19.60
2022-11-30T02:37:42.040Z,18.80
2022-11-30T02:42:43.721Z,18.80
2022-11-30T02:48:09.832Z,21.35
2022-11-30T02:53:11.808Z,19.13
2022-11-30T02:58:16.857Z,18.98
2022-11-30T03:03:18.562Z,19.92
2022-11-30T03:08:20.208Z,20.42
2022-11-30T03:13:22.954Z,18.92
2022-11-30T03:18:24.605Z,19.67
2022-11-30T03:23:26.631Z,19.63
2022-11-30T03:28:28.811Z,19.63
2022-11-30T03:33:30.602Z,19.80
2022-11-30T03:38:32.588Z,20.20
2022-11-30T03:43:34.409Z,20.70
2022-11-30T03:48:36.492Z,20.98
2022-11-30T03:53:38.875Z,22.90
2022-11-30T03:58:40.550Z,22.77
2022-11-30T04:03:43.282Z,22.85
2022-11-30T04:08:45.164Z,21.58
2022-11-30T04:13:46.786Z,21.20
2022-11-30T04:18:48.693Z,22.92
2022-11-30T04:23:50.402Z,22.15
2022-11-30T04:28:51.975Z,22.55
2022-11-30T04:33:54.589Z,22.77
2022-11-30T04:38:56.238Z,22.92
2022-11-30T04:43:57.813Z,23.15
2022-11-30T04:48:59.363Z,25.50
2022-11-30T04:54:00.934Z,26.83
2022-11-30T04:59:03.043Z,25.92
2022-11-30T05:04:04.733Z,26.58
2022-11-30T05:09:06.502Z,27.98
2022-11-30T05:14:08.093Z,25.70
2022-11-30T05:19:09.970Z,27.85
2022-11-30T05:24:11.710Z,27.25
2022-11-30T05:29:13.314Z,27.38
2022-11-30T05:34:14.977Z,28.67
2022-11-30T05:39:16.542Z,26.55
2022-11-30T05:44:18.068Z,24.40
2022-11-30T05:49:19.639Z,24.45
2022-11-30T05:54:22.266Z,27.25
2022-11-30T05:59:23.919Z,26.45
2022-11-30T06:04:25.453Z,26.88
2022-11-30T06:09:27.129Z,26.70
2022-11-30T06:14:28.674Z,26.88
2022-11-30T06:19:30.243Z,25.75
2022-11-30T06:24:31.792Z,27.33
2022-11-30T06:29:33.371Z,25.25
2022-11-30T06:34:34.879Z,25.98
2022-11-30T06:40:04.906Z,28.50
2022-11-30T06:44:58.353Z,26.98
2022-11-30T06:49:59.910Z,27.17
2022-11-30T06:55:01.548Z,27.58
2022-11-30T07:00:04.558Z,27.77
2022-11-30T07:05:06.278Z,28.00
2022-11-30T07:10:08.598Z,27.58
2022-11-30T07:15:10.894Z,28.20
2022-11-30T07:20:12.643Z,28.95
2022-11-30T07:25:32.879Z,28.38
2022-11-30T07:30:34.965Z,27.63
2022-11-30T07:35:36.500Z,27.77
2022-11-30T07:40:38.090Z,28.15
2022-11-30T07:45:39.726Z,27.83
2022-11-30T07:50:41.286Z,27.08
2022-11-30T07:55:43.639Z,28.30
2022-11-30T08:00:45.338Z,28.30
2022-11-30T08:05:46.874Z,29.48
2022-11-30T08:10:48.406Z,29.20
2022-11-30T08:15:49.925Z,28.75
2022-11-30T08:20:57.487Z,30.40
2022-11-30T08:26:03.454Z,29.33
2022-11-30T08:31:09.028Z,28.83
2022-11-30T08:36:15.832Z,27.58
2022-11-30T08:41:19.957Z,29.65
2022-11-30T08:52:15.822Z,27.13
2022-11-30T08:57:06.870Z,25.48
2022-11-30T09:02:10.839Z,26.77
2022-11-30T09:07:12.687Z,25.70
2022-11-30T09:12:14.262Z,26.83
2022-11-30T09:17:15.802Z,26.23
2022-11-30T09:22:18.340Z,26.02
2022-11-30T09:27:20.348Z,26.65
2022-11-30T09:32:21.900Z,26.33
2022-11-30T09:37:23.729Z,26.98
2022-11-30T09:42:38.732Z,24.38
2022-11-30T09:47:47.860Z,24.48
2022-11-30T09:52:56.943Z,25.80
2022-11-30T09:58:02.010Z,24.90
2022-11-30T10:03:06.216Z,24.92
2022-11-30T10:08:19.326Z,24.98
2022-11-30T10:13:29.998Z,24.85
2022-11-30T10:18:48.369Z,24.42
2022-11-30T10:24:34.427Z,25.27
2022-11-30T10:29:39.767Z,24.42
2022-11-30T10:34:44.247Z,24.00
2022-11-30T10:40:05.826Z,25.13
2022-11-30T10:45:13.209Z,25.33
2022-11-30T10:50:17.314Z,24.37
2022-11-30T10:55:23.070Z,24.08
2022-11-30T11:00:24.889Z,23.35
2022-11-30T11:05:28.890Z,24.08
2022-11-30T11:10:37.210Z,23.55
2022-11-30T11:15:38.812Z,23.30
2022-11-30T11:20:43.260Z,22.92
2022-11-30T11:25:53.099Z,22.75
2022-11-30T11:30:56.971Z,24.30
2022-11-30T11:36:07.591Z,22.98
2022-11-30T11:41:27.158Z,23.38
2022-11-30T11:46:30.346Z,23.25
2022-11-30T11:51:35.059Z,22.95
2022-11-30T11:56:37.338Z,24.60
2022-11-30T12:01:50.166Z,23.45
2022-11-30T12:06:54.079Z,22.38
2022-11-30T12:11:55.783Z,23.80
2022-11-30T12:17:09.482Z,24.02
2022-11-30T12:22:45.115Z,22.70
2022-11-30T12:28:07.855Z,24.30
2022-11-30T12:33:25.229Z,22.33
2022-11-30T12:39:04.137Z,16.83
2022-11-30T12:44:28.961Z,22.08
2022-11-30T12:49:38.964Z,20.23
2022-11-30T12:54:55.699Z,22.60
2022-11-30T13:00:10.747Z,22.20
2022-11-30T13:05:30.492Z,21.55
2022-11-30T13:10:42.762Z,21.73
2022-11-30T13:15:46.022Z,22.52
2022-11-30T13:21:21.197Z,21.52
2022-11-30T13:26:37.458Z,20.55
2022-11-30T13:32:05.295Z,21.52
2022-11-30T13:42:36.812Z,19.85
2022-11-30T13:47:49.000Z,20.25
2022-11-30T13:53:02.721Z,21.25
2022-11-30T13:58:09.736Z,21.45
2022-11-30T14:03:22.959Z,21.17
2022-11-30T14:08:24.406Z,20.77
2022-11-30T14:13:31.468Z,19.90
2022-11-30T14:18:39.302Z,19.98
2022-11-30T14:23:50.376Z,19.35
2022-11-30T14:29:03.373Z,20.45
2022-11-30T14:34:21.885Z,19.58
2022-11-30T14:39:35.039Z,20.08
2022-11-30T14:44:40.531Z,19.90
2022-11-30T14:49:52.288Z,20.48
2022-11-30T14:55:04.743Z,19.23
2022-11-30T15:00:07.013Z,19.25
2022-11-30T15:05:16.028Z,20.27
2022-11-30T15:10:29.809Z,19.00
2022-11-30T15:15:31.510Z,18.52
2022-11-30T15:20:44.249Z,19.50
2022-11-30T15:25:48.470Z,21.20
2022-11-30T15:30:55.314Z,20.20
2022-11-30T15:36:16.267Z,20.48
2022-11-30T15:41:22.273Z,22.38
2022-11-30T15:46:32.060Z,20.05
2022-11-30T15:51:39.196Z,20.67
2022-11-30T15:56:40.892Z,21.65
2022-11-30T16:02:14.586Z,20.88
2022-11-30T16:07:17.995Z,21.05
2022-11-30T16:12:29.858Z,20.42
2022-11-30T16:17:32.685Z,20.75
2022-11-30T16:22:35.354Z,19.77
2022-11-30T16:27:37.218Z,21.33
2022-11-30T16:32:38.774Z,20.30
2022-11-30T16:37:40.568Z,22.30
2022-11-30T16:42:42.187Z,22.15
2022-11-30T16:47:44.023Z,21.70
2022-11-30T16:52:46.131Z,23.00
2022-11-30T16:57:48.983Z,22.40
2022-11-30T17:02:58.156Z,22.90
2022-11-30T17:07:59.876Z,22.80
2022-11-30T17:13:01.511Z,22.75
2022-11-30T17:18:03.030Z,21.88
2022-11-30T17:23:06.378Z,21.90
2022-11-30T17:28:07.947Z,23.15
2022-11-30T17:33:09.438Z,24.13
2022-11-30T17:38:10.992Z,23.45
2022-11-30T17:43:12.657Z,22.42
2022-11-30T17:48:15.967Z,22.90
2022-11-30T17:53:18.416Z,22.75
2022-11-30T17:58:20.195Z,23.15
2022-11-30T18:03:21.829Z,23.35
2022-11-30T18:08:23.437Z,22.13
2022-11-30T18:13:25.297Z,22.42
2022-11-30T18:18:27.072Z,23.83
2022-11-30T18:23:28.603Z,22.17
2022-11-30T18:28:30.187Z,24.35
2022-11-30T18:33:32.270Z,24.33
2022-11-30T18:38:37.996Z,22.67
2022-11-30T18:43:40.209Z,23.95
2022-11-30T18:48:41.999Z,22.85
2022-11-30T18:53:44.075Z,23.60
2022-11-30T18:58:47.483Z,23.63
2022-11-30T19:03:51.718Z,23.38
2022-11-30T19:08:53.234Z,24.35
2022-11-30T19:13:56.937Z,23.45
2022-11-30T19:19:07.187Z,23.30
2022-11-30T19:24:09.439Z,22.98
2022-11-30T19:29:11.719Z,22.60
2022-11-30T19:34:13.962Z,23.83
2022-11-30T19:39:15.576Z,22.95
2022-11-30T19:44:17.226Z,22.73
2022-11-30T19:49:18.790Z,23.50
2022-11-30T19:54:20.451Z,22.63
2022-11-30T19:59:22.035Z,21.50
2022-11-30T20:04:24.035Z,21.92
2022-11-30T20:09:25.618Z,23.02
2022-11-30T20:14:27.273Z,22.60
2022-11-30T20:19:28.843Z,22.58
2022-11-30T20:24:30.742Z,21.40
2022-11-30T20:29:32.284Z,22.83
2022-11-30T20:34:39.724Z,23.05
2022-11-30T20:39:46.209Z,23.05
2022-11-30T20:44:48.240Z,21.35
2022-11-30T20:49:50.336Z,22.88
2022-11-30T20:54:51.903Z,21.30
2022-11-30T20:59:53.701Z,21.85
2022-11-30T21:04:55.304Z,23.63
2022-11-30T21:09:58.017Z,23.58
2022-11-30T21:14:59.581Z,22.83
2022-11-30T21:20:01.675Z,20.67
2022-11-30T21:25:03.387Z,21.95
2022-11-30T21:30:05.960Z,22.17
2022-11-30T21:35:08.308Z,22.67
2022-11-30T21:40:10.880Z,21.95
2022-11-30T21:45:12.499Z,22.10
2022-11-30T21:50:14.088Z,20.98
2022-11-30T21:55:16.013Z,21.77
2022-11-30T22:00:18.233Z,21.80
2022-11-30T22:05:19.898Z,21.60
2022-11-30T22:10:21.505Z,21.45
2022-11-30T22:15:23.066Z,22.13
2022-11-30T22:20:24.591Z,21.38
2022-11-30T22:25:26.189Z,21.15
2022-11-30T22:30:27.742Z,21.77
2022-11-30T22:35:29.253Z,21.27
2022-11-30T22:40:30.819Z,20.55
2022-11-30T22:45:33.779Z,21.65
2022-11-30T22:50:35.435Z,19.77
2022-11-30T22:55:37.169Z,21.38
2022-11-30T23:00:38.874Z,21.88
2022-11-30T23:05:40.507Z,19.88
2022-11-30T23:10:42.042Z,21.08
2022-11-30T23:15:43.713Z,19.65
2022-11-30T23:20:45.373Z,20.02
2022-11-30T23:25:48.200Z,20.17
2022-11-30T23:30:49.743Z,20.15
2022-11-30T23:35:51.386Z,19.35
2022-11-30T23:40:52.932Z,20.98
2022-11-30T23:45:54.517Z,18.67
2022-11-30T23:50:56.140Z,19.02
2022-11-30T23:56:02.693Z,17.58
